createdAt,value
2022-10-31T00:02:09.863Z,8.45
2022-10-31T00:05:13.894Z,8.82
2022-10-31T00:10:43.691Z,8.88
2022-10-31T00:15:47.498Z,8.43
2022-10-31T00:18:27.564Z,8.38
2022-10-31T00:23:59.808Z,9.80
2022-10-31T01:14:19.484Z,7.72
2022-10-31T01:16:46.252Z,8.30
2022-10-31T01:19:14.667Z,8.05
2022-10-31T01:21:41.444Z,7.43
2022-10-31T01:24:09.220Z,7.60
2022-10-31T01:26:38.308Z,7.07
2022-10-31T01:29:07.659Z,7.35
2022-10-31T01:31:37.651Z,6.38
2022-10-31T01:34:04.715Z,7.30
2022-10-31T01:36:38.700Z,6.57
2022-10-31T01:39:08.895Z,6.72
2022-10-31T01:41:38.581Z,8.45
2022-10-31T01:44:26.003Z,7.90
2022-10-31T01:47:08.267Z,7.10
2022-10-31T01:49:40.462Z,6.80
2022-10-31T01:52:13.260Z,7.45
2022-10-31T01:54:47.391Z,7.25
2022-10-31T01:57:41.679Z,6.95
2022-10-31T02:00:21.912Z,7.18
2022-10-31T02:03:06.132Z,6.72
2022-10-31T02:08:29.450Z,7.05
2022-10-31T02:11:20.392Z,6.75
2022-10-31T02:13:51.005Z,6.78
2022-10-31T02:16:33.168Z,6.03
2022-10-31T02:19:12.013Z,6.20
2022-10-31T02:22:13.218Z,5.93
2022-10-31T02:28:53.890Z,6.45
2022-10-31T02:31:38.430Z,6.30
2022-10-31T02:34:19.757Z,6.93
2022-10-31T02:36:50.847Z,6.13
2022-10-31T02:39:24.724Z,6.68
2022-10-31T02:42:10.055Z,6.80
2022-10-31T02:44:44.200Z,6.25
2022-10-31T02:47:18.134Z,6.90
2022-10-31T02:50:06.251Z,7.13
2022-10-31T02:52:37.011Z,6.72
2022-10-31T02:55:36.130Z,6.63
2022-10-31T02:58:11.714Z,6.35
2022-10-31T03:01:16.185Z,6.57
2022-10-31T03:04:03.976Z,6.00
2022-10-31T03:06:39.096Z,6.47
2022-10-31T03:09:14.474Z,5.40
2022-10-31T03:11:57.537Z,6.57
2022-10-31T03:14:33.329Z,6.00
2022-10-31T03:17:03.588Z,5.90
2022-10-31T03:19:34.843Z,6.10
2022-10-31T03:22:18.610Z,7.03
2022-10-31T03:24:46.394Z,5.47
2022-10-31T03:27:16.644Z,6.53
2022-10-31T03:29:45.041Z,6.65
2022-10-31T03:32:19.629Z,6.75
2022-10-31T03:34:47.229Z,6.55
2022-10-31T03:37:18.119Z,6.03
2022-10-31T03:39:45.798Z,6.32
2022-10-31T03:42:29.332Z,6.05
2022-10-31T03:45:00.087Z,5.22
2022-10-31T03:47:28.099Z,5.95
2022-10-31T03:49:59.037Z,5.53
2022-10-31T03:52:39.155Z,6.38
2022-10-31T03:55:23.810Z,5.85
2022-10-31T03:58:27.120Z,6.35
2022-10-31T04:00:56.003Z,6.20
2022-10-31T04:03:42.717Z,6.32
2022-10-31T04:06:14.596Z,5.45
2022-10-31T04:08:56.996Z,6.05
2022-10-31T04:11:26.827Z,6.65
2022-10-31T04:18:31.298Z,5.20
2022-10-31T04:26:43.957Z,4.75
2022-10-31T04:29:36.263Z,4.97
2022-10-31T04:32:03.289Z,5.37
2022-10-31T04:34:29.973Z,5.50
2022-10-31T04:36:56.649Z,5.68
2022-10-31T04:39:26.588Z,6.22
2022-10-31T04:42:13.476Z,5.03
2022-10-31T04:44:40.283Z,5.07
2022-10-31T04:47:06.961Z,5.25
2022-10-31T04:49:33.752Z,6.07
2022-10-31T04:52:00.461Z,5.70
2022-10-31T04:54:27.139Z,4.88
2022-10-31T04:57:12.418Z,6.25
2022-10-31T04:59:42.218Z,5.80
2022-10-31T05:02:09.203Z,5.10
2022-10-31T05:04:50.463Z,5.75
2022-10-31T05:09:59.823Z,5.65
2022-10-31T05:12:31.251Z,5.85
2022-10-31T05:15:07.357Z,5.85
2022-10-31T05:18:29.809Z,5.68
2022-10-31T05:21:17.844Z,6.27
2022-10-31T05:24:08.272Z,6.28
2022-10-31T05:29:25.524Z,6.45
2022-10-31T05:31:53.654Z,5.82
2022-10-31T05:37:49.431Z,5.90
2022-10-31T05:40:19.181Z,5.57
2022-10-31T05:42:47.480Z,5.85
2022-10-31T05:45:32.530Z,5.47
2022-10-31T05:48:09.155Z,5.70
2022-10-31T05:51:05.295Z,6.60
2022-10-31T05:56:17.086Z,5.63
2022-10-31T05:58:47.431Z,5.40
2022-10-31T06:01:14.297Z,5.90
2022-10-31T06:03:42.161Z,6.50
2022-10-31T06:06:10.281Z,5.53
2022-10-31T06:08:41.610Z,5.82
2022-10-31T06:11:17.890Z,5.68
2022-10-31T06:14:05.150Z,5.38
2022-10-31T06:16:38.903Z,5.50
2022-10-31T06:19:29.677Z,5.85
2022-10-31T06:21:56.389Z,5.72
2022-10-31T06:24:25.285Z,5.90
2022-10-31T06:27:01.647Z,5.25
2022-10-31T06:29:28.289Z,5.55
2022-10-31T06:32:18.253Z,6.03
2022-10-31T06:34:49.321Z,6.68
2022-10-31T06:37:28.309Z,6.03
2022-10-31T06:40:05.108Z,5.82
2022-10-31T06:42:41.152Z,5.93
2022-10-31T06:45:09.523Z,6.72
2022-10-31T06:48:17.268Z,5.47
2022-10-31T06:51:03.403Z,5.72
2022-10-31T06:53:31.000Z,6.97
2022-10-31T06:56:04.127Z,5.72
2022-10-31T06:58:36.182Z,5.82
2022-10-31T07:01:05.955Z,6.05
2022-10-31T07:03:33.703Z,6.07
2022-10-31T07:06:01.041Z,6.82
2022-10-31T07:08:28.552Z,6.53
2022-10-31T07:10:57.328Z,6.32
2022-10-31T07:13:28.394Z,6.57
2022-10-31T07:16:05.893Z,6.22
2022-10-31T07:18:35.376Z,5.82
2022-10-31T07:21:03.044Z,5.68
2022-10-31T07:23:29.999Z,6.32
2022-10-31T07:26:18.317Z,6.40
2022-10-31T07:28:48.991Z,6.15
2022-10-31T07:31:18.951Z,6.20
2022-10-31T07:33:46.130Z,7.30
2022-10-31T07:36:27.995Z,5.47
2022-10-31T07:39:00.017Z,6.60
2022-10-31T07:41:27.748Z,6.40
2022-10-31T07:43:54.790Z,6.22
2022-10-31T07:49:26.638Z,6.90
2022-10-31T07:52:11.831Z,6.78
2022-10-31T07:54:57.077Z,6.55
2022-10-31T07:57:31.924Z,6.40
2022-10-31T08:00:10.033Z,6.93
2022-10-31T08:02:41.537Z,6.70
2022-10-31T08:05:38.323Z,6.28
2022-10-31T08:08:38.572Z,6.75
2022-10-31T08:11:10.591Z,5.90
2022-10-31T08:13:38.767Z,6.72
2022-10-31T08:16:08.453Z,6.60
2022-10-31T08:21:11.513Z,6.85
2022-10-31T08:23:42.660Z,6.95
2022-10-31T08:26:09.391Z,7.18
2022-10-31T08:32:05.367Z,7.93
2022-10-31T08:35:09.415Z,7.28
2022-10-31T08:37:39.657Z,7.43
2022-10-31T08:40:07.792Z,6.90
2022-10-31T08:42:49.211Z,7.40
